Ripton, Vermont
Current Conditions -  °F | °C
As of 7:35 PM on Tuesday 25 Nov 2014 (Local Time) from K6B0 Reporting Station
Clear Clear  
Wind Chill: 37°   Ceiling: Unl
Heat Index: 37°   Visibility: 10mi
Dew Point: 30°   Wind: 3mph
Humidity: 78%   Direction: 120°ESE
Pressure: 30"   Gusts: NA
Location:  43.97°N, 73.04°W
Report Text: K6B0 260035Z AUTO 12003KT 10SM CLR 03/M01 A3000 RMK AO2 T00251010
Loading
Personal Weather Stations






























Interactive Weather Map New forecast layout! Learn more

10-Day Weather Forecast

Advertisements
Track Severe Weather on mobile